Time;durP1;ratioP1;P1;durP2;ratioP2;P2;SDS_P1;SDS_P2;PMS_P1;PMS_P2;Temp;Humidity;BMP_temperature;BMP_pressure;BME280_temperature;BME280_humidity;BME280_pressure;Samples;Min_cycle;Max_cycle;Signal;HPM_P1;HPM_P2
2023/01/26 00:00:53;;;;;;;44.78;23.08;;;-1.20;89.50;;;;;;5018410;28;20034;-66
2023/01/26 00:03:19;;;;;;;40.70;21.17;;;-1.20;89.10;;;;;;5000783;28;20460;-67
2023/01/26 00:05:44;;;;;;;38.25;19.92;;;-1.20;88.20;;;;;;5018376;28;20030;-67
2023/01/26 00:08:13;;;;;;;40.67;22.83;;;-1.10;88.40;;;;;;5019349;28;20056;-67
2023/01/26 00:10:40;;;;;;;39.35;19.13;;;-1.20;88.70;;;;;;5018379;28;20396;-67
2023/01/26 00:13:09;;;;;;;38.30;21.00;;;-1.20;88.50;;;;;;5000918;28;20120;-67
2023/01/26 00:15:35;;;;;;;34.08;18.00;;;-1.10;88.10;;;;;;5022114;28;20033;-67
2023/01/26 00:18:01;;;;;;;33.72;18.02;;;-1.10;89.70;;;;;;5026090;28;20030;-67
2023/01/26 00:20:28;;;;;;;35.20;18.52;;;-1.20;89.50;;;;;;5016235;28;20033;-67
2023/01/26 00:22:57;;;;;;;37.28;18.80;;;-1.20;88.80;;;;;;5013056;28;20037;-68
2023/01/26 00:25:22;;;;;;;34.45;19.58;;;-1.30;88.50;;;;;;5014543;28;20097;-67
2023/01/26 00:27:48;;;;;;;42.90;22.77;;;-1.20;88.00;;;;;;4996891;28;20114;-67
2023/01/26 00:30:14;;;;;;;39.47;21.35;;;-1.30;88.30;;;;;;5018344;28;20034;-67
2023/01/26 00:32:40;;;;;;;37.33;19.85;;;-1.30;88.10;;;;;;5017036;28;20366;-67
2023/01/26 00:35:06;;;;;;;49.50;24.38;;;-1.30;87.00;;;;;;5002779;28;20034;-67
2023/01/26 00:37:32;;;;;;;36.90;19.67;;;-1.30;87.20;;;;;;5014036;28;20084;-67
2023/01/26 00:39:57;;;;;;;45.58;23.75;;;-1.30;86.20;;;;;;5017199;28;20117;-67
2023/01/26 00:42:23;;;;;;;47.78;24.10;;;-1.30;86.80;;;;;;5000927;28;20427;-66
2023/01/26 00:44:49;;;;;;;49.53;26.27;;;-1.30;85.90;;;;;;5016949;28;20048;-67
2023/01/26 00:47:16;;;;;;;42.25;23.58;;;-1.30;85.70;;;;;;5020575;28;20049;-66
2023/01/26 00:49:41;;;;;;;46.28;24.05;;;-1.30;85.30;;;;;;5012913;28;20112;-66
2023/01/26 00:52:07;;;;;;;49.15;23.83;;;-1.30;85.70;;;;;;5014170;28;20109;-65
2023/01/26 00:54:33;;;;;;;50.00;25.30;;;-1.30;85.00;;;;;;5018399;28;20488;-68
2023/01/26 00:56:58;;;;;;;56.17;26.15;;;-1.30;85.10;;;;;;5016051;28;20408;-67
2023/01/26 00:59:24;;;;;;;50.95;25.98;;;-1.30;85.20;;;;;;5017153;28;20057;-67
2023/01/26 01:01:53;;;;;;;54.50;27.65;;;-1.30;84.50;;;;;;4995616;28;20080;-67
2023/01/26 01:04:19;;;;;;;62.38;28.48;;;-1.30;84.50;;;;;;5017947;28;20069;-67
2023/01/26 01:06:44;;;;;;;52.85;27.75;;;-1.30;84.10;;;;;;5021112;28;20049;-67
2023/01/26 01:09:10;;;;;;;56.45;27.90;;;-1.30;83.40;;;;;;5016842;28;20052;-67
2023/01/26 01:11:36;;;;;;;56.60;28.25;;;-1.20;83.80;;;;;;4987891;28;20050;-68
2023/01/26 01:14:02;;;;;;;57.05;29.20;;;-1.30;83.70;;;;;;5018433;28;20061;-67
2023/01/26 01:16:28;;;;;;;67.25;29.42;;;-1.30;83.10;;;;;;5015755;28;20100;-67
2023/01/26 01:18:54;;;;;;;57.83;30.23;;;-1.30;83.30;;;;;;5020825;28;20026;-67
2023/01/26 01:21:21;;;;;;;68.93;32.75;;;-1.30;83.00;;;;;;5028753;28;20128;-67
2023/01/26 01:23:47;;;;;;;59.17;29.73;;;-1.30;83.10;;;;;;4999697;28;20439;-67
2023/01/26 01:26:13;;;;;;;68.13;30.02;;;-1.20;82.10;;;;;;5015015;28;20050;-67
2023/01/26 01:28:39;;;;;;;53.42;27.95;;;-1.30;84.00;;;;;;5016207;28;20029;-67
2023/01/26 01:31:10;;;;;;;59.97;29.15;;;-1.30;82.20;;;;;;5018641;28;20084;-65
2023/01/26 01:33:35;;;;;;;56.90;29.25;;;-1.30;82.70;;;;;;5017741;28;20505;-67
2023/01/26 01:36:04;;;;;;;69.18;31.08;;;-1.30;81.70;;;;;;5018782;28;20082;-66
2023/01/26 01:38:29;;;;;;;73.18;31.02;;;-1.20;81.50;;;;;;5025387;28;20112;-67
2023/01/26 01:40:56;;;;;;;50.08;28.25;;;-1.30;81.80;;;;;;5016030;28;20097;-67
2023/01/26 01:43:22;;;;;;;60.60;28.92;;;-1.20;81.40;;;;;;5015148;28;20025;-67
2023/01/26 01:45:49;;;;;;;54.72;28.42;;;-1.20;81.60;;;;;;5014922;28;20044;-66
2023/01/26 01:48:27;;;;;;;59.58;28.70;;;-1.20;82.00;;;;;;4999731;28;20330;-67
2023/01/26 01:50:56;;;;;;;48.72;27.58;;;-1.20;81.90;;;;;;5015889;28;20454;-67
2023/01/26 01:53:33;;;;;;;62.80;29.20;;;-1.20;81.30;;;;;;5014546;28;20305;-67
2023/01/26 01:56:04;;;;;;;51.22;27.25;;;-1.20;82.60;;;;;;5019054;28;20030;-65
2023/01/26 01:58:32;;;;;;;58.85;28.92;;;-1.30;81.20;;;;;;5000498;28;20107;-68
2023/01/26 02:00:58;;;;;;;74.03;32.53;;;-1.30;81.30;;;;;;5020208;28;20029;-67
2023/01/26 02:03:27;;;;;;;63.80;32.00;;;-1.30;80.80;;;;;;5016558;28;20026;-67
2023/01/26 02:06:13;;;;;;;64.95;30.67;;;-1.30;81.10;;;;;;5001796;28;20121;-67
2023/01/26 02:08:43;;;;;;;63.70;30.02;;;-1.30;80.60;;;;;;5012935;28;20123;-67
2023/01/26 02:11:35;;;;;;;72.15;32.55;;;-1.20;80.30;;;;;;4989835;28;20054;-67
2023/01/26 02:14:04;;;;;;;54.65;29.02;;;-1.20;80.60;;;;;;5008657;28;20128;-67
2023/01/26 02:16:29;;;;;;;57.20;28.15;;;-1.20;80.50;;;;;;5015126;28;20032;-67
2023/01/26 02:18:55;;;;;;;43.53;24.83;;;-1.20;80.90;;;;;;5015119;28;20443;-67
2023/01/26 02:21:22;;;;;;;40.90;22.02;;;-1.20;80.30;;;;;;5016085;28;20158;-66
2023/01/26 02:24:10;;;;;;;45.45;24.52;;;-1.20;81.20;;;;;;5012043;28;20023;-67
2023/01/26 02:26:36;;;;;;;50.67;26.20;;;-1.10;81.60;;;;;;5012792;28;20028;-67
2023/01/26 02:29:06;;;;;;;44.90;24.70;;;-1.10;83.40;;;;;;5010842;28;20442;-67
2023/01/26 02:31:31;;;;;;;48.67;26.38;;;-1.20;83.30;;;;;;5013283;28;20037;-67
2023/01/26 02:33:57;;;;;;;50.28;27.08;;;-1.10;83.60;;;;;;5014123;28;20076;-67
2023/01/26 02:36:26;;;;;;;42.28;24.10;;;-1.10;84.00;;;;;;5013641;28;20030;-66
2023/01/26 02:38:56;;;;;;;49.78;26.25;;;-1.10;83.00;;;;;;5012846;28;20025;-67
2023/01/26 02:44:11;;;;;;;45.35;24.23;;;-1.10;83.80;;;;;;5004795;28;20045;-67
2023/01/26 02:46:37;;;;;;;50.90;27.08;;;-1.20;83.40;;;;;;5014320;28;20014;-67
2023/01/26 02:51:50;;;;;;;57.20;28.75;;;-1.30;83.90;;;;;;5017621;28;20052;-67
2023/01/26 02:57:01;;;;;;;51.65;26.95;;;-1.30;83.50;;;;;;5005096;28;20026;-66
2023/01/26 02:59:26;;;;;;;57.45;27.60;;;-1.30;82.20;;;;;;5014217;28;20030;-67
2023/01/26 03:01:55;;;;;;;55.63;28.23;;;-1.30;82.50;;;;;;5013078;28;20378;-67
2023/01/26 03:04:20;;;;;;;53.28;27.88;;;-1.20;82.10;;;;;;5006253;28;20136;-67
2023/01/26 03:06:46;;;;;;;51.85;26.58;;;-1.30;82.70;;;;;;5013702;28;20108;-67
2023/01/26 03:09:11;;;;;;;64.53;29.27;;;-1.20;81.80;;;;;;5014856;28;20030;-67
2023/01/26 03:11:43;;;;;;;57.55;27.55;;;-1.20;82.90;;;;;;5011141;28;20041;-67
2023/01/26 03:14:10;;;;;;;56.83;28.75;;;-1.20;81.90;;;;;;4998399;28;20414;-67
2023/01/26 03:16:35;;;;;;;55.65;26.75;;;-1.20;81.90;;;;;;4994480;28;20041;-67
2023/01/26 03:27:27;;;;;;;47.40;21.73;;;-1.30;82.50;;;;;;5012571;28;20053;-67
2023/01/26 03:29:56;;;;;;;44.38;20.63;;;-1.30;83.30;;;;;;5015790;28;20018;-67
2023/01/26 03:32:22;;;;;;;50.78;23.13;;;-1.30;84.10;;;;;;5014810;28;20072;-67
2023/01/26 03:34:47;;;;;;;45.42;21.92;;;-1.40;85.30;;;;;;5000096;28;20030;-67
2023/01/26 03:37:13;;;;;;;45.65;21.02;;;-1.50;84.90;;;;;;5014337;28;20323;-67
2023/01/26 03:56:19;;;;;;;46.42;21.80;;;-1.60;85.70;;;;;;5012171;28;20068;-67
2023/01/26 03:58:46;;;;;;;49.50;22.45;;;-1.60;85.80;;;;;;5021328;28;20021;-67
2023/01/26 04:01:18;;;;;;;53.40;25.15;;;-1.60;85.60;;;;;;5017741;28;20429;-67
2023/01/26 04:09:21;;;;;;;44.80;22.02;;;-1.60;84.50;;;;;;5017744;28;20036;-68
2023/01/26 04:11:47;;;;;;;60.72;27.02;;;-1.50;83.80;;;;;;5017869;28;20046;-67
2023/01/26 04:22:28;;;;;;;;;;;-1.50;84.90;;;;;;5016848;28;20109;-68
2023/01/26 04:24:53;;;;;;;74.22;37.83;;;-1.50;85.60;;;;;;5017003;28;19917;-67
2023/01/26 04:27:19;;;;;;;69.22;37.42;;;-1.50;86.30;;;;;;5030651;28;20037;-67
2023/01/26 04:29:45;;;;;;;50.47;25.35;;;-1.50;86.10;;;;;;5024721;28;20034;-67
2023/01/26 04:32:10;;;;;;;51.53;26.77;;;-1.50;86.10;;;;;;5021435;28;20135;-67
2023/01/26 04:34:36;;;;;;;43.55;22.92;;;-1.50;88.10;;;;;;5017506;28;20128;-67
2023/01/26 04:37:02;;;;;;;66.00;37.40;;;-1.50;87.80;;;;;;5015536;28;20033;-67
2023/01/26 04:39:27;;;;;;;44.22;25.52;;;-1.40;88.40;;;;;;5015612;28;20140;-67
2023/01/26 04:41:53;;;;;;;40.90;20.25;;;-1.40;88.90;;;;;;5007369;28;20027;-67
2023/01/26 04:44:18;;;;;;;43.67;23.70;;;-1.40;90.60;;;;;;5018240;28;20105;-67
2023/01/26 04:46:46;;;;;;;34.13;18.85;;;-1.50;90.40;;;;;;5015941;28;20029;-67
2023/01/26 04:49:11;;;;;;;33.22;16.65;;;-1.40;89.90;;;;;;5021136;28;20026;-67
2023/01/26 04:51:37;;;;;;;31.88;15.68;;;-1.40;90.60;;;;;;5021798;28;20108;-67
2023/01/26 04:54:03;;;;;;;29.65;16.17;;;-1.40;91.70;;;;;;5013312;28;20060;-67
2023/01/26 04:56:30;;;;;;;36.47;17.98;;;-1.50;91.70;;;;;;5012376;28;20033;-67
2023/01/26 04:59:00;;;;;;;39.72;19.17;;;-1.50;91.80;;;;;;5017375;28;20121;-67
2023/01/26 05:01:26;;;;;;;37.95;19.40;;;-1.40;91.80;;;;;;5030247;28;20021;-67
2023/01/26 05:03:52;;;;;;;31.98;17.88;;;-1.40;92.10;;;;;;5004370;28;20021;-68
2023/01/26 05:06:17;;;;;;;40.67;18.70;;;-1.40;91.30;;;;;;5023131;28;20081;-66
2023/01/26 05:08:43;;;;;;;36.80;19.48;;;-1.40;92.40;;;;;;5017942;28;20427;-67
2023/01/26 05:11:09;;;;;;;39.20;18.63;;;-1.50;93.10;;;;;;5014135;28;20048;-66
2023/01/26 05:13:36;;;;;;;40.63;20.20;;;-1.50;92.30;;;;;;5017621;28;20026;-67
2023/01/26 05:16:05;;;;;;;45.45;21.45;;;-1.50;92.90;;;;;;5013288;28;20049;-67
2023/01/26 05:18:32;;;;;;;40.78;20.05;;;-1.60;92.10;;;;;;5020525;28;20065;-66
2023/01/26 05:20:58;;;;;;;43.08;20.83;;;-1.60;91.00;;;;;;5024899;28;20029;-67
2023/01/26 05:23:24;;;;;;;41.38;21.02;;;-1.60;90.50;;;;;;5014592;28;20026;-67
2023/01/26 05:25:50;;;;;;;42.38;20.50;;;-1.60;89.80;;;;;;5011021;28;20030;-67
2023/01/26 05:28:15;;;;;;;43.72;21.25;;;-1.50;89.40;;;;;;4999844;28;20026;-67
2023/01/26 05:30:41;;;;;;;49.05;23.67;;;-1.50;89.50;;;;;;5016738;28;20070;-67
2023/01/26 05:33:09;;;;;;;46.92;23.30;;;-1.50;88.70;;;;;;5017648;28;20030;-67
2023/01/26 05:35:35;;;;;;;54.97;24.27;;;-1.50;87.80;;;;;;5016767;28;20037;-67
2023/01/26 05:38:01;;;;;;;57.17;25.25;;;-1.50;89.60;;;;;;5014983;28;20304;-67
2023/01/26 05:40:26;;;;;;;53.15;25.35;;;-1.50;88.50;;;;;;5014972;28;20030;-67
2023/01/26 05:42:53;;;;;;;51.65;23.80;;;-1.50;88.50;;;;;;5017464;28;20025;-67
2023/01/26 05:45:19;;;;;;;46.20;23.27;;;-1.50;87.90;;;;;;5016818;28;20018;-67
2023/01/26 05:47:45;;;;;;;63.55;27.30;;;-1.50;87.20;;;;;;5017354;28;20026;-67
2023/01/26 05:50:11;;;;;;;52.63;24.90;;;-1.50;87.00;;;;;;5016007;28;20319;-66
2023/01/26 05:52:37;;;;;;;41.58;21.95;;;-1.50;86.00;;;;;;5015647;28;20022;-67
2023/01/26 05:55:04;;;;;;;51.25;25.60;;;-1.40;85.20;;;;;;5015647;28;20057;-67
2023/01/26 05:57:30;;;;;;;42.20;22.17;;;-1.40;85.50;;;;;;5017316;28;20022;-67
2023/01/26 05:59:55;;;;;;;44.92;22.92;;;-1.30;85.50;;;;;;5013434;28;20113;-67
2023/01/26 06:02:21;;;;;;;54.42;24.80;;;-1.20;85.60;;;;;;5013513;28;20030;-67
2023/01/26 06:04:47;;;;;;;53.33;26.10;;;-1.20;88.30;;;;;;5014175;28;20034;-67
2023/01/26 06:07:12;;;;;;;58.38;26.45;;;-1.30;87.30;;;;;;4998381;28;20030;-67
2023/01/26 06:09:39;;;;;;;47.47;24.08;;;-1.30;87.40;;;;;;5008217;28;20026;-67
2023/01/26 06:12:17;;;;;;;59.00;27.75;;;-1.40;86.30;;;;;;5013691;28;20046;-67
2023/01/26 06:14:42;;;;;;;64.57;27.65;;;-1.40;86.00;;;;;;5009332;28;20048;-67
2023/01/26 06:17:08;;;;;;;62.85;26.27;;;-1.40;85.40;;;;;;4998245;28;20022;-67
2023/01/26 06:19:34;;;;;;;56.67;25.92;;;-1.50;85.00;;;;;;5015891;28;20068;-67
2023/01/26 06:22:00;;;;;;;41.65;21.38;;;-1.50;83.80;;;;;;5015592;28;20022;-67
2023/01/26 06:24:26;;;;;;;50.90;24.42;;;-1.50;82.50;;;;;;5015799;28;20018;-67
2023/01/26 06:26:52;;;;;;;50.22;23.05;;;-1.40;83.20;;;;;;5014341;28;20021;-67
2023/01/26 06:29:17;;;;;;;42.13;22.02;;;-1.40;82.90;;;;;;5016907;28;20041;-67
2023/01/26 06:31:43;;;;;;;57.15;24.08;;;-1.30;81.70;;;;;;4980087;28;20038;-67
2023/01/26 06:34:09;;;;;;;43.08;20.65;;;-1.30;83.20;;;;;;4996901;28;20030;-67
2023/01/26 06:36:35;;;;;;;50.00;23.17;;;-1.30;82.70;;;;;;5011463;28;20101;-67
2023/01/26 06:39:01;;;;;;;44.85;21.33;;;-1.30;83.10;;;;;;5011713;28;20435;-67
2023/01/26 06:41:26;;;;;;;40.40;20.67;;;-1.40;82.90;;;;;;4997991;28;20033;-66
2023/01/26 06:43:52;;;;;;;34.92;18.98;;;-1.40;82.10;;;;;;5016339;28;20032;-69
2023/01/26 06:46:18;;;;;;;40.60;19.88;;;-1.30;82.20;;;;;;5016373;28;20030;-69
2023/01/26 06:48:44;;;;;;;53.03;22.67;;;-1.30;82.60;;;;;;5016400;28;20148;-68
2023/01/26 06:51:35;;;;;;;46.00;21.05;;;-1.30;82.80;;;;;;5016340;28;20080;-68
2023/01/26 06:54:01;;;;;;;35.92;18.10;;;-1.30;82.00;;;;;;4977169;28;20489;-68
2023/01/26 06:56:28;;;;;;;37.40;18.60;;;-1.30;83.10;;;;;;5015447;28;20030;-67
2023/01/26 06:58:53;;;;;;;39.08;18.02;;;-1.30;83.00;;;;;;5012839;28;20037;-67
2023/01/26 07:01:22;;;;;;;39.13;19.90;;;-1.30;82.80;;;;;;5017376;28;20486;-68
2023/01/26 07:03:48;;;;;;;42.22;20.83;;;-1.30;83.80;;;;;;5014198;28;20109;-67
2023/01/26 07:06:15;;;;;;;56.75;23.98;;;-1.30;83.20;;;;;;5016184;28;20065;-67
2023/01/26 07:08:40;;;;;;;46.25;20.92;;;-1.20;83.10;;;;;;5014803;28;20053;-68
2023/01/26 07:11:06;;;;;;;39.70;18.40;;;-1.20;83.50;;;;;;4996176;28;20443;-67
2023/01/26 07:13:32;;;;;;;42.28;20.08;;;-1.20;83.80;;;;;;5009107;28;20362;-67
2023/01/26 07:16:06;;;;;;;34.55;18.00;;;-1.20;84.30;;;;;;4996299;28;20080;-67
2023/01/26 07:18:32;;;;;;;58.67;24.33;;;-1.10;84.30;;;;;;5013319;28;20029;-67
2023/01/26 07:21:05;;;;;;;41.53;19.33;;;-1.20;85.40;;;;;;5016056;28;20084;-67
2023/01/26 07:23:31;;;;;;;42.72;19.58;;;-1.20;84.20;;;;;;5012909;28;20060;-67
2023/01/26 07:25:57;;;;;;;37.25;17.45;;;-1.20;84.00;;;;;;5016018;28;20062;-67
2023/01/26 07:28:24;;;;;;;32.45;16.17;;;-1.10;84.60;;;;;;5012291;28;20037;-67
2023/01/26 07:30:50;;;;;;;38.72;18.88;;;-1.10;84.50;;;;;;5014501;28;20101;-67
2023/01/26 07:33:15;;;;;;;36.70;18.10;;;-1.10;85.00;;;;;;5014537;28;20108;-67
2023/01/26 07:35:41;;;;;;;29.23;15.48;;;-1.00;84.50;;;;;;5013544;28;20041;-67
2023/01/26 07:38:07;;;;;;;29.45;16.02;;;-1.00;86.00;;;;;;5013974;28;20080;-67
2023/01/26 07:40:33;;;;;;;34.13;16.50;;;-1.10;86.30;;;;;;5012834;28;20026;-67
2023/01/26 07:42:59;;;;;;;39.45;19.90;;;-1.00;85.90;;;;;;5012456;28;20054;-66
2023/01/26 07:45:25;;;;;;;31.42;16.83;;;-0.90;86.50;;;;;;5014917;28;20068;-66
2023/01/26 07:47:53;;;;;;;29.98;16.00;;;-0.90;87.20;;;;;;5015645;28;20317;-67
2023/01/26 07:50:20;;;;;;;28.70;14.02;;;-0.90;87.60;;;;;;5015756;28;20407;-67
2023/01/26 07:52:46;;;;;;;29.08;15.18;;;-0.90;88.80;;;;;;5012904;28;20033;-67
2023/01/26 07:55:12;;;;;;;28.10;15.90;;;-0.90;88.80;;;;;;5014555;28;20033;-67
2023/01/26 07:57:37;;;;;;;28.13;14.30;;;-0.90;88.10;;;;;;5010495;28;20018;-66
2023/01/26 08:00:03;;;;;;;29.88;15.07;;;-0.80;89.10;;;;;;5010110;28;20042;-67
2023/01/26 08:02:29;;;;;;;30.92;15.43;;;-0.80;89.50;;;;;;5012201;28;20057;-67
2023/01/26 08:04:54;;;;;;;27.48;14.88;;;-0.90;91.00;;;;;;5014641;28;20139;-66
2023/01/26 08:07:20;;;;;;;26.95;14.48;;;-0.90;90.90;;;;;;5024601;28;20303;-66
2023/01/26 08:09:45;;;;;;;27.13;13.32;;;-0.90;90.80;;;;;;5031393;28;20030;-67
2023/01/26 08:12:11;;;;;;;26.67;14.70;;;-0.80;91.10;;;;;;5031978;28;20052;-66
2023/01/26 08:14:37;;;;;;;30.20;15.15;;;-0.80;92.30;;;;;;5024904;28;20052;-66
2023/01/26 08:17:02;;;;;;;29.65;14.57;;;-0.70;91.60;;;;;;5019026;28;20478;-67
2023/01/26 08:19:28;;;;;;;30.08;14.73;;;-0.60;92.30;;;;;;5016974;28;20042;-67
2023/01/26 08:21:53;;;;;;;23.40;12.63;;;-0.60;93.30;;;;;;4999220;28;20026;-67
2023/01/26 08:24:19;;;;;;;25.67;13.70;;;-0.40;93.50;;;;;;5016092;28;20026;-67
2023/01/26 08:26:44;;;;;;;27.83;13.02;;;-0.30;94.70;;;;;;5018109;28;20364;-67
2023/01/26 08:29:10;;;;;;;24.92;12.70;;;-0.30;95.20;;;;;;5017773;28;20088;-67
2023/01/26 08:31:37;;;;;;;21.45;11.30;;;-0.30;95.30;;;;;;5017193;28;20088;-66
2023/01/26 08:34:03;;;;;;;106.40;40.50;;;-0.20;97.30;;;;;;5016793;28;20088;-67
2023/01/26 08:36:29;;;;;;;39.58;20.15;;;-0.20;97.80;;;;;;5017590;28;20026;-66
2023/01/26 08:38:54;;;;;;;31.38;16.50;;;-0.20;96.60;;;;;;4998958;28;20159;-67
2023/01/26 08:41:20;;;;;;;27.80;14.25;;;-0.20;96.20;;;;;;5017611;28;20081;-67
2023/01/26 08:43:45;;;;;;;26.00;13.63;;;-0.30;95.90;;;;;;5017479;28;20030;-66
2023/01/26 08:46:11;;;;;;;22.05;12.65;;;-0.40;94.80;;;;;;5017292;28;20029;-66
2023/01/26 08:48:37;;;;;;;24.13;12.48;;;-0.50;93.80;;;;;;4992987;28;20030;-66
2023/01/26 08:51:04;;;;;;;23.50;13.55;;;-0.50;94.20;;;;;;4977820;28;20124;-66
2023/01/26 08:53:31;;;;;;;27.40;15.52;;;-0.50;93.80;;;;;;4997218;28;20055;-66
2023/01/26 08:56:00;;;;;;;27.90;15.48;;;-0.40;93.30;;;;;;4994342;28;20041;-66
2023/01/26 08:58:28;;;;;;;35.05;19.17;;;-0.40;93.50;;;;;;4995247;28;20031;-67
2023/01/26 09:00:54;;;;;;;57.00;28.15;;;-0.40;93.20;;;;;;4994232;28;20378;-67
2023/01/26 09:03:20;;;;;;;40.20;21.75;;;-0.40;93.60;;;;;;4992424;28;20026;-67
2023/01/26 09:05:45;;;;;;;35.83;17.92;;;-0.40;93.80;;;;;;4998369;28;20026;-67
2023/01/26 09:08:11;;;;;;;29.88;15.95;;;-0.40;93.40;;;;;;5020223;28;20029;-67
2023/01/26 09:10:38;;;;;;;20.23;10.75;;;-0.30;93.70;;;;;;5000648;28;20327;-68
2023/01/26 09:13:03;;;;;;;25.63;14.73;;;-0.20;95.30;;;;;;5017998;28;20026;-67
2023/01/26 09:15:29;;;;;;;12.45;6.82;;;-0.10;97.90;;;;;;5018018;28;20101;-66
2023/01/26 09:17:54;;;;;;;25.55;14.73;;;-0.10;98.00;;;;;;5017268;28;20042;-67
2023/01/26 09:20:22;;;;;;;22.73;12.20;;;-0.10;98.00;;;;;;5016318;28;20374;-67
2023/01/26 09:22:47;;;;;;;22.45;11.98;;;-0.10;97.80;;;;;;5016030;28;20033;-67
2023/01/26 09:25:13;;;;;;;22.25;12.60;;;-0.20;98.00;;;;;;5013672;28;20455;-66
2023/01/26 09:27:39;;;;;;;20.55;11.95;;;-0.10;98.00;;;;;;4998210;28;20026;-66
2023/01/26 09:30:06;;;;;;;16.80;9.10;;;0.00;98.00;;;;;;5013318;28;20028;-66
2023/01/26 09:32:32;;;;;;;15.70;9.20;;;0.20;98.00;;;;;;5009882;28;20315;-66
2023/01/26 09:34:57;;;;;;;15.50;8.98;;;0.10;98.00;;;;;;5014377;28;20026;-65
2023/01/26 09:37:23;;;;;;;16.40;9.55;;;0.10;98.00;;;;;;5013615;28;20022;-68
2023/01/26 09:39:48;;;;;;;24.58;11.48;;;0.10;98.00;;;;;;5015844;28;20172;-67
2023/01/26 09:42:36;;;;;;;26.00;13.38;;;0.10;98.00;;;;;;5009600;28;20034;-67
2023/01/26 09:45:10;;;;;;;31.23;15.82;;;0.00;98.00;;;;;;5015960;28;20033;-67
2023/01/26 09:47:52;;;;;;;29.55;15.77;;;-0.10;98.00;;;;;;5013837;28;20029;-67
2023/01/26 09:50:25;;;;;;;44.50;17.67;;;-0.10;98.00;;;;;;5015053;28;20076;-66
2023/01/26 09:52:57;;;;;;;35.65;18.25;;;-0.30;97.50;;;;;;5008688;28;20025;-65
2023/01/26 09:55:24;;;;;;;38.35;18.50;;;-0.40;95.60;;;;;;5010535;28;20104;-66
2023/01/26 09:57:57;;;;;;;28.55;15.82;;;-0.40;94.70;;;;;;5013487;28;20109;-67
2023/01/26 10:00:27;;;;;;;34.05;18.60;;;-0.30;94.70;;;;;;5006475;28;20030;-67
2023/01/26 10:03:20;;;;;;;33.53;17.83;;;-0.40;96.20;;;;;;4998846;28;20423;-67
2023/01/26 10:06:25;;;;;;;34.92;18.33;;;-0.40;94.80;;;;;;5014355;28;20055;-67
2023/01/26 10:08:52;;;;;;;32.03;18.55;;;-0.50;95.70;;;;;;5011412;28;20414;-66
2023/01/26 10:11:25;;;;;;;31.83;18.60;;;-0.60;94.80;;;;;;5013756;28;20118;-67
2023/01/26 10:13:59;;;;;;;37.27;19.03;;;-0.50;95.60;;;;;;5008104;28;20126;-66
2023/01/26 10:16:25;;;;;;;29.60;18.42;;;-0.50;96.00;;;;;;5015785;28;20368;-67
2023/01/26 10:19:11;;;;;;;40.88;23.88;;;-0.60;95.60;;;;;;5013833;28;20167;-66
2023/01/26 10:21:42;;;;;;;20.70;12.75;;;-0.60;95.50;;;;;;5010751;28;20025;-66
2023/01/26 10:24:10;;;;;;;25.83;14.98;;;-0.60;95.80;;;;;;5013485;28;20057;-67
2023/01/26 10:26:36;;;;;;;20.50;11.25;;;-0.40;96.70;;;;;;5004008;28;20108;-67
2023/01/26 10:29:02;;;;;;;18.27;10.52;;;-0.30;98.00;;;;;;5013848;28;20507;-66
2023/01/26 10:31:31;;;;;;;16.83;9.30;;;-0.20;98.00;;;;;;5012728;28;20029;-67
2023/01/26 10:34:00;;;;;;;15.70;9.30;;;-0.10;98.00;;;;;;5014652;28;20036;-67
2023/01/26 10:36:30;;;;;;;18.08;10.65;;;-0.10;98.00;;;;;;5008453;28;20030;-66
2023/01/26 10:39:06;;;;;;;20.42;11.63;;;-0.10;98.00;;;;;;5013456;28;20041;-67
2023/01/26 10:41:33;;;;;;;18.83;10.50;;;-0.10;98.00;;;;;;5014919;28;20022;-67
2023/01/26 10:44:01;;;;;;;25.33;14.80;;;-0.10;98.00;;;;;;5014454;28;20030;-66
2023/01/26 10:46:34;;;;;;;28.98;16.98;;;-0.30;98.00;;;;;;5012386;28;20115;-66
2023/01/26 10:49:14;;;;;;;29.73;16.23;;;-0.50;97.70;;;;;;5014898;28;20072;-66
2023/01/26 10:52:03;;;;;;;28.05;16.83;;;-0.40;96.10;;;;;;4996074;28;20083;-67
2023/01/26 10:54:29;;;;;;;23.73;12.77;;;-0.40;97.30;;;;;;4997554;28;20453;-67
2023/01/26 10:56:57;;;;;;;19.00;10.38;;;-0.30;97.00;;;;;;4994164;28;20038;-67
2023/01/26 10:59:38;;;;;;;20.63;11.60;;;-0.30;97.60;;;;;;5015211;28;20420;-66
2023/01/26 11:02:16;;;;;;;26.73;13.93;;;-0.30;98.00;;;;;;5012730;28;20057;-66
2023/01/26 11:05:23;;;;;;;21.00;11.48;;;-0.30;98.00;;;;;;5011668;28;20040;-67
2023/01/26 11:07:54;;;;;;;27.50;15.13;;;-0.40;97.30;;;;;;4998740;28;20117;-67
2023/01/26 11:10:26;;;;;;;20.85;12.77;;;-0.40;97.60;;;;;;5012566;28;20030;-67
2023/01/26 11:13:19;;;;;;;29.70;15.88;;;-0.40;97.90;;;;;;5016058;28;20369;-67
2023/01/26 11:16:11;;;;;;;23.38;12.68;;;-0.40;96.50;;;;;;5016102;28;20358;-66
2023/01/26 11:18:58;;;;;;;22.85;12.75;;;-0.30;98.00;;;;;;5015086;28;20339;-67
2023/01/26 11:21:32;;;;;;;21.23;12.20;;;-0.50;98.00;;;;;;5010189;28;20319;-67
2023/01/26 11:24:23;;;;;;;24.48;13.13;;;-0.50;97.90;;;;;;5019648;28;20018;-66
2023/01/26 11:27:21;;;;;;;21.48;12.23;;;-0.50;98.00;;;;;;5013217;28;20026;-67
2023/01/26 11:30:20;;;;;;;16.25;9.25;;;-0.60;98.00;;;;;;5016018;28;20026;-66
2023/01/26 11:33:09;;;;;;;20.90;11.63;;;-0.40;98.00;;;;;;5015908;28;20026;-66
2023/01/26 11:36:02;;;;;;;16.70;9.48;;;-0.40;98.00;;;;;;5016070;28;20054;-67
2023/01/26 11:38:33;;;;;;;17.67;10.00;;;-0.30;98.00;;;;;;5014668;28;20022;-67
2023/01/26 11:41:27;;;;;;;29.80;14.18;;;-0.30;98.00;;;;;;5013909;28;20034;-66
2023/01/26 11:44:16;;;;;;;27.67;15.15;;;-0.40;98.00;;;;;;4996294;28;20062;-67
2023/01/26 11:47:04;;;;;;;18.15;11.02;;;-0.20;98.00;;;;;;4996294;28;20031;-67
2023/01/26 11:49:33;;;;;;;19.40;10.90;;;0.00;98.00;;;;;;4980200;28;20034;-67
2023/01/26 11:52:20;;;;;;;24.20;13.25;;;0.00;98.00;;;;;;4998996;28;20038;-67
2023/01/26 11:55:23;;;;;;;28.33;15.35;;;-0.10;98.00;;;;;;4999964;28;20053;-67
2023/01/26 11:58:24;;;;;;;25.40;13.40;;;-0.40;98.00;;;;;;5017960;28;20426;-67
2023/01/26 12:00:56;;;;;;;50.13;29.65;;;-0.50;98.00;;;;;;5019446;28;20026;-67
2023/01/26 12:03:43;;;;;;;24.02;13.27;;;-0.60;98.00;;;;;;5019347;28;20108;-67
2023/01/26 12:06:37;;;;;;;21.25;11.90;;;-0.70;98.00;;;;;;5019299;28;20032;-66
2023/01/26 12:09:31;;;;;;;26.08;13.93;;;-0.70;98.00;;;;;;5010102;28;20033;-66
2023/01/26 12:12:13;;;;;;;30.98;16.80;;;-0.80;98.00;;;;;;5018429;28;20053;-65
2023/01/26 12:14:57;;;;;;;35.05;19.98;;;-0.90;98.00;;;;;;5005399;28;20041;-67
2023/01/26 12:17:34;;;;;;;35.58;18.60;;;-1.00;97.80;;;;;;5017892;28;20018;-66
2023/01/26 12:20:37;;;;;;;33.30;16.33;;;-1.20;97.30;;;;;;5017344;28;20077;-66
2023/01/26 12:23:26;;;;;;;36.38;18.33;;;-1.20;96.40;;;;;;5015624;28;20077;-66
2023/01/26 12:25:56;;;;;;;37.50;19.55;;;-1.30;95.80;;;;;;4999418;28;20491;-66
2023/01/26 12:28:25;;;;;;;31.92;17.52;;;-1.10;95.90;;;;;;5011325;28;20030;-66
2023/01/26 12:30:57;;;;;;;32.95;16.70;;;-1.00;96.10;;;;;;5017972;28;20033;-66
2023/01/26 12:33:24;;;;;;;37.05;18.52;;;-0.90;96.80;;;;;;5018131;28;20022;-69
2023/01/26 12:36:34;;;;;;;25.33;13.57;;;-0.70;98.00;;;;;;5001503;28;20415;-68
2023/01/26 12:39:24;;;;;;;33.78;16.75;;;-0.70;98.00;;;;;;4994463;28;20040;-67
2023/01/26 12:42:14;;;;;;;26.92;14.68;;;-0.80;98.00;;;;;;4999143;28;20023;-67
2023/01/26 12:44:55;;;;;;;31.42;16.30;;;-0.90;98.00;;;;;;5017189;28;20109;-67
2023/01/26 12:47:29;;;;;;;38.25;19.20;;;-1.10;98.00;;;;;;5000174;28;20359;-67
2023/01/26 12:50:24;;;;;;;41.92;19.55;;;-1.20;96.70;;;;;;5017650;28;20026;-67
2023/01/26 12:52:50;;;;;;;30.73;16.42;;;-1.30;96.10;;;;;;5014681;28;20036;-67
2023/01/26 12:55:30;;;;;;;43.63;22.00;;;-1.30;96.50;;;;;;5018348;28;20026;-67
2023/01/26 12:58:11;;;;;;;42.03;22.13;;;-1.30;95.20;;;;;;5016516;28;20038;-67
2023/01/26 13:00:38;;;;;;;38.10;21.65;;;-1.20;95.20;;;;;;5017321;28;20044;-67
2023/01/26 13:03:12;;;;;;;34.75;18.58;;;-1.20;96.10;;;;;;5016169;28;20041;-67
2023/01/26 13:06:18;;;;;;;31.00;18.80;;;-1.20;96.40;;;;;;5018274;28;20053;-67
2023/01/26 13:09:18;;;;;;;30.55;15.45;;;-1.40;96.10;;;;;;4997153;28;20450;-67
2023/01/26 13:11:58;;;;;;;33.65;17.65;;;-1.40;94.20;;;;;;5009548;28;20076;-66
2023/01/26 13:14:27;;;;;;;86.40;33.45;;;-1.40;94.50;;;;;;5018239;28;20335;-67
2023/01/26 13:16:56;;;;;;;33.13;18.80;;;-1.40;94.30;;;;;;5017238;28;20038;-67
2023/01/26 13:19:51;;;;;;;29.40;17.67;;;-1.40;94.50;;;;;;5000512;28;20034;-67
2023/01/26 13:22:17;;;;;;;37.88;20.95;;;-1.50;94.80;;;;;;4996915;28;20041;-67
2023/01/26 13:24:47;;;;;;;35.80;19.15;;;-1.50;94.80;;;;;;5017947;28;20469;-67
2023/01/26 13:27:41;;;;;;;37.97;20.50;;;-1.50;94.10;;;;;;5016329;28;20129;-67
2023/01/26 13:30:24;;;;;;;35.97;19.77;;;-1.50;93.40;;;;;;5000424;28;20330;-66
2023/01/26 13:32:51;;;;;;;35.75;19.52;;;-1.50;93.40;;;;;;5017759;28;20120;-66